sensor_id;sensor_type;location;lat;lon;timestamp;temperature;humidity
49861;DHT22;35761;48.826;9.238;2023-05-01T00:00:03;12.00;36.60
49861;DHT22;35761;48.826;9.238;2023-05-01T00:02:37;12.00;36.10
49861;DHT22;35761;48.826;9.238;2023-05-01T00:05:11;11.90;36.50
49861;DHT22;35761;48.826;9.238;2023-05-01T00:07:41;12.00;36.50
49861;DHT22;35761;48.826;9.238;2023-05-01T00:10:12;11.90;36.70
49861;DHT22;35761;48.826;9.238;2023-05-01T00:12:42;11.80;36.80
49861;DHT22;35761;48.826;9.238;2023-05-01T00:15:12;11.80;37.00
49861;DHT22;35761;48.826;9.238;2023-05-01T00:17:43;11.70;37.40
49861;DHT22;35761;48.826;9.238;2023-05-01T00:20:16;11.70;37.80
49861;DHT22;35761;48.826;9.238;2023-05-01T00:22:47;11.70;38.00
49861;DHT22;35761;48.826;9.238;2023-05-01T00:25:17;11.60;38.20
49861;DHT22;35761;48.826;9.238;2023-05-01T00:27:48;11.50;38.70
49861;DHT22;35761;48.826;9.238;2023-05-01T00:30:18;11.50;38.90
49861;DHT22;35761;48.826;9.238;2023-05-01T00:32:49;11.50;39.20
49861;DHT22;35761;48.826;9.238;2023-05-01T00:35:22;11.50;39.40
49861;DHT22;35761;48.826;9.238;2023-05-01T00:37:52;11.30;39.70
49861;DHT22;35761;48.826;9.238;2023-05-01T00:40:23;11.30;40.00
49861;DHT22;35761;48.826;9.238;2023-05-01T00:42:54;11.30;40.20
49861;DHT22;35761;48.826;9.238;2023-05-01T00:45:24;11.30;40.20
49861;DHT22;35761;48.826;9.238;2023-05-01T00:47:55;11.30;40.20
49861;DHT22;35761;48.826;9.238;2023-05-01T00:50:28;11.30;40.40
49861;DHT22;35761;48.826;9.238;2023-05-01T00:52:59;11.30;40.60
49861;DHT22;35761;48.826;9.238;2023-05-01T00:55:30;11.20;40.60
49861;DHT22;35761;48.826;9.238;2023-05-01T00:58:02;11.20;40.60
49861;DHT22;35761;48.826;9.238;2023-05-01T01:00:32;11.20;40.60
49861;DHT22;35761;48.826;9.238;2023-05-01T01:03:03;11.20;40.70
49861;DHT22;35761;48.826;9.238;2023-05-01T01:05:40;11.10;40.80
49861;DHT22;35761;48.826;9.238;2023-05-01T01:08:18;11.10;41.00
49861;DHT22;35761;48.826;9.238;2023-05-01T01:10:56;11.10;41.00
49861;DHT22;35761;48.826;9.238;2023-05-01T01:13:32;11.00;41.30
49861;DHT22;35761;48.826;9.238;2023-05-01T01:16:15;11.00;41.90
49861;DHT22;35761;48.826;9.238;2023-05-01T01:18:55;11.00;41.70
49861;DHT22;35761;48.826;9.238;2023-05-01T01:21:31;11.00;41.50
49861;DHT22;35761;48.826;9.238;2023-05-01T01:27:46;11.10;40.90
49861;DHT22;35761;48.826;9.238;2023-05-01T01:30:50;11.00;41.50
49861;DHT22;35761;48.826;9.238;2023-05-01T01:36:40;11.00;42.30
49861;DHT22;35761;48.826;9.238;2023-05-01T01:39:28;10.90;42.50
49861;DHT22;35761;48.826;9.238;2023-05-01T01:41:59;10.90;42.70
49861;DHT22;35761;48.826;9.238;2023-05-01T01:44:39;10.90;42.80
49861;DHT22;35761;48.826;9.238;2023-05-01T01:47:13;10.90;43.00
49861;DHT22;35761;48.826;9.238;2023-05-01T01:49:50;10.90;43.20
49861;DHT22;35761;48.826;9.238;2023-05-01T01:52:23;10.90;43.40
49861;DHT22;35761;48.826;9.238;2023-05-01T01:54:57;10.90;43.40
49861;DHT22;35761;48.826;9.238;2023-05-01T01:57:31;10.80;43.30
49861;DHT22;35761;48.826;9.238;2023-05-01T02:00:03;10.80;43.40
49861;DHT22;35761;48.826;9.238;2023-05-01T02:02:39;10.80;43.60
49861;DHT22;35761;48.826;9.238;2023-05-01T02:05:15;10.80;43.50
49861;DHT22;35761;48.826;9.238;2023-05-01T02:07:49;10.80;43.70
49861;DHT22;35761;48.826;9.238;2023-05-01T02:10:21;10.80;43.70
49861;DHT22;35761;48.826;9.238;2023-05-01T02:12:54;10.80;43.60
49861;DHT22;35761;48.826;9.238;2023-05-01T02:15:26;10.70;43.80
49861;DHT22;35761;48.826;9.238;2023-05-01T02:18:01;10.70;44.40
49861;DHT22;35761;48.826;9.238;2023-05-01T02:20:36;10.70;48.00
49861;DHT22;35761;48.826;9.238;2023-05-01T02:23:08;10.70;44.60
49861;DHT22;35761;48.826;9.238;2023-05-01T02:25:39;10.60;44.40
49861;DHT22;35761;48.826;9.238;2023-05-01T02:28:12;10.60;44.50
49861;DHT22;35761;48.826;9.238;2023-05-01T02:30:42;10.60;54.50
49861;DHT22;35761;48.826;9.238;2023-05-01T02:33:13;10.60;57.80
49861;DHT22;35761;48.826;9.238;2023-05-01T02:35:46;10.50;50.20
49861;DHT22;35761;48.826;9.238;2023-05-01T02:38:18;10.60;44.70
49861;DHT22;35761;48.826;9.238;2023-05-01T02:40:52;10.60;49.00
49861;DHT22;35761;48.826;9.238;2023-05-01T02:43:27;10.60;57.80
49861;DHT22;35761;48.826;9.238;2023-05-01T02:46:02;10.50;65.40
49861;DHT22;35761;48.826;9.238;2023-05-01T02:48:34;10.60;44.60
49861;DHT22;35761;48.826;9.238;2023-05-01T02:51:08;10.50;45.00
49861;DHT22;35761;48.826;9.238;2023-05-01T02:53:39;10.60;44.90
49861;DHT22;35761;48.826;9.238;2023-05-01T02:56:18;10.60;44.70
49861;DHT22;35761;48.826;9.238;2023-05-01T02:58:49;10.50;44.60
49861;DHT22;35761;48.826;9.238;2023-05-01T03:01:19;10.50;44.60
49861;DHT22;35761;48.826;9.238;2023-05-01T03:03:50;10.50;45.10
49861;DHT22;35761;48.826;9.238;2023-05-01T03:06:23;10.50;45.10
49861;DHT22;35761;48.826;9.238;2023-05-01T03:08:55;10.40;45.60
49861;DHT22;35761;48.826;9.238;2023-05-01T03:11:26;10.40;45.60
49861;DHT22;35761;48.826;9.238;2023-05-01T03:13:56;10.40;45.90
49861;DHT22;35761;48.826;9.238;2023-05-01T03:16:26;10.30;46.20
49861;DHT22;35761;48.826;9.238;2023-05-01T03:18:57;10.40;46.40
49861;DHT22;35761;48.826;9.238;2023-05-01T03:21:30;10.40;46.90
49861;DHT22;35761;48.826;9.238;2023-05-01T03:24:01;10.40;47.00
49861;DHT22;35761;48.826;9.238;2023-05-01T03:26:31;10.40;47.00
49861;DHT22;35761;48.826;9.238;2023-05-01T03:29:01;10.40;46.50
49861;DHT22;35761;48.826;9.238;2023-05-01T03:31:32;10.40;46.40
49861;DHT22;35761;48.826;9.238;2023-05-01T03:34:03;10.40;46.10
49861;DHT22;35761;48.826;9.238;2023-05-01T03:36:36;10.40;45.70
49861;DHT22;35761;48.826;9.238;2023-05-01T03:39:07;10.40;45.70
49861;DHT22;35761;48.826;9.238;2023-05-01T03:41:57;10.30;45.80
49861;DHT22;35761;48.826;9.238;2023-05-01T03:44:33;10.30;46.30
49861;DHT22;35761;48.826;9.238;2023-05-01T03:47:04;10.30;46.30
49861;DHT22;35761;48.826;9.238;2023-05-01T03:49:38;10.30;46.60
49861;DHT22;35761;48.826;9.238;2023-05-01T03:52:13;10.30;47.00
49861;DHT22;35761;48.826;9.238;2023-05-01T03:54:44;10.20;46.50
49861;DHT22;35761;48.826;9.238;2023-05-01T03:57:22;10.20;46.60
49861;DHT22;35761;48.826;9.238;2023-05-01T03:59:53;10.20;46.50
49861;DHT22;35761;48.826;9.238;2023-05-01T04:02:24;10.20;46.60
49861;DHT22;35761;48.826;9.238;2023-05-01T04:04:54;10.20;47.00
49861;DHT22;35761;48.826;9.238;2023-05-01T04:07:32;10.30;47.40
49861;DHT22;35761;48.826;9.238;2023-05-01T04:10:03;10.30;46.80
49861;DHT22;35761;48.826;9.238;2023-05-01T04:12:39;10.30;46.60
49861;DHT22;35761;48.826;9.238;2023-05-01T04:15:10;10.30;46.20
49861;DHT22;35761;48.826;9.238;2023-05-01T04:17:42;10.30;46.50
49861;DHT22;35761;48.826;9.238;2023-05-01T04:20:13;10.30;46.70
49861;DHT22;35761;48.826;9.238;2023-05-01T04:22:48;10.30;46.60
49861;DHT22;35761;48.826;9.238;2023-05-01T04:25:19;10.30;46.60
49861;DHT22;35761;48.826;9.238;2023-05-01T04:27:52;10.30;46.60
49861;DHT22;35761;48.826;9.238;2023-05-01T04:30:23;10.30;46.80
49861;DHT22;35761;48.826;9.238;2023-05-01T04:32:54;10.30;47.10
49861;DHT22;35761;48.826;9.238;2023-05-01T04:35:24;10.20;47.30
49861;DHT22;35761;48.826;9.238;2023-05-01T04:37:57;10.20;47.50
49861;DHT22;35761;48.826;9.238;2023-05-01T04:40:29;10.30;47.70
49861;DHT22;35761;48.826;9.238;2023-05-01T04:42:59;10.30;47.50
49861;DHT22;35761;48.826;9.238;2023-05-01T04:45:31;10.30;47.50
49861;DHT22;35761;48.826;9.238;2023-05-01T04:48:02;10.20;47.20
49861;DHT22;35761;48.826;9.238;2023-05-01T04:50:32;10.20;47.10
49861;DHT22;35761;48.826;9.238;2023-05-01T04:53:06;10.20;47.10
49861;DHT22;35761;48.826;9.238;2023-05-01T04:55:37;10.30;47.10
49861;DHT22;35761;48.826;9.238;2023-05-01T04:58:12;10.30;47.40
49861;DHT22;35761;48.826;9.238;2023-05-01T05:00:45;10.30;47.40
49861;DHT22;35761;48.826;9.238;2023-05-01T05:03:20;10.30;47.50
49861;DHT22;35761;48.826;9.238;2023-05-01T05:05:51;10.30;47.70
49861;DHT22;35761;48.826;9.238;2023-05-01T05:08:25;10.30;48.10
49861;DHT22;35761;48.826;9.238;2023-05-01T05:11:01;10.30;48.10
49861;DHT22;35761;48.826;9.238;2023-05-01T05:13:38;10.30;47.90
49861;DHT22;35761;48.826;9.238;2023-05-01T05:16:11;10.30;48.10
49861;DHT22;35761;48.826;9.238;2023-05-01T05:18:42;10.30;48.10
49861;DHT22;35761;48.826;9.238;2023-05-01T05:21:13;10.30;48.10
49861;DHT22;35761;48.826;9.238;2023-05-01T05:23:51;10.40;47.90
49861;DHT22;35761;48.826;9.238;2023-05-01T05:26:22;10.40;48.00
49861;DHT22;35761;48.826;9.238;2023-05-01T05:28:56;10.50;48.10
49861;DHT22;35761;48.826;9.238;2023-05-01T05:31:26;10.40;48.30
49861;DHT22;35761;48.826;9.238;2023-05-01T05:33:57;10.50;49.20
49861;DHT22;35761;48.826;9.238;2023-05-01T05:36:28;10.50;49.00
49861;DHT22;35761;48.826;9.238;2023-05-01T05:39:01;10.50;48.70
49861;DHT22;35761;48.826;9.238;2023-05-01T05:41:33;10.50;48.60
49861;DHT22;35761;48.826;9.238;2023-05-01T05:44:03;10.50;48.40
49861;DHT22;35761;48.826;9.238;2023-05-01T05:46:33;10.50;48.40
49861;DHT22;35761;48.826;9.238;2023-05-01T05:49:04;10.40;48.50
49861;DHT22;35761;48.826;9.238;2023-05-01T05:51:35;10.40;48.40
49861;DHT22;35761;48.826;9.238;2023-05-01T05:54:10;10.40;48.80
49861;DHT22;35761;48.826;9.238;2023-05-01T05:56:40;10.40;48.90
49861;DHT22;35761;48.826;9.238;2023-05-01T05:59:11;10.40;49.50
49861;DHT22;35761;48.826;9.238;2023-05-01T06:01:43;10.40;49.80
49861;DHT22;35761;48.826;9.238;2023-05-01T06:04:14;10.40;50.20
49861;DHT22;35761;48.826;9.238;2023-05-01T06:06:45;10.40;50.40
49861;DHT22;35761;48.826;9.238;2023-05-01T06:09:18;10.40;50.90
49861;DHT22;35761;48.826;9.238;2023-05-01T06:11:48;10.40;51.50
49861;DHT22;35761;48.826;9.238;2023-05-01T06:14:19;10.50;51.30
49861;DHT22;35761;48.826;9.238;2023-05-01T06:16:50;10.50;50.60
49861;DHT22;35761;48.826;9.238;2023-05-01T06:19:21;10.50;50.50
49861;DHT22;35761;48.826;9.238;2023-05-01T06:21:58;10.50;50.00
49861;DHT22;35761;48.826;9.238;2023-05-01T06:24:37;10.50;49.50
49861;DHT22;35761;48.826;9.238;2023-05-01T06:27:09;10.50;49.80
49861;DHT22;35761;48.826;9.238;2023-05-01T06:29:40;10.50;49.90
49861;DHT22;35761;48.826;9.238;2023-05-01T06:32:11;10.50;50.10
49861;DHT22;35761;48.826;9.238;2023-05-01T06:34:42;10.50;50.10
49861;DHT22;35761;48.826;9.238;2023-05-01T06:37:13;10.50;50.50
49861;DHT22;35761;48.826;9.238;2023-05-01T06:39:46;10.60;49.90
49861;DHT22;35761;48.826;9.238;2023-05-01T06:42:17;10.60;50.30
49861;DHT22;35761;48.826;9.238;2023-05-01T06:44:48;10.60;50.60
49861;DHT22;35761;48.826;9.238;2023-05-01T06:47:18;10.60;50.60
49861;DHT22;35761;48.826;9.238;2023-05-01T06:49:49;10.60;50.40
49861;DHT22;35761;48.826;9.238;2023-05-01T06:52:19;10.60;50.60
49861;DHT22;35761;48.826;9.238;2023-05-01T06:54:53;10.60;50.20
49861;DHT22;35761;48.826;9.238;2023-05-01T06:57:23;10.60;50.80
49861;DHT22;35761;48.826;9.238;2023-05-01T06:59:54;10.70;50.10
49861;DHT22;35761;48.826;9.238;2023-05-01T07:02:25;10.60;50.30
49861;DHT22;35761;48.826;9.238;2023-05-01T07:04:56;10.70;51.10
49861;DHT22;35761;48.826;9.238;2023-05-01T07:07:26;10.70;52.20
49861;DHT22;35761;48.826;9.238;2023-05-01T07:09:59;10.70;52.10
49861;DHT22;35761;48.826;9.238;2023-05-01T07:12:30;10.70;52.30
49861;DHT22;35761;48.826;9.238;2023-05-01T07:15:00;10.80;51.50
49861;DHT22;35761;48.826;9.238;2023-05-01T07:17:31;10.80;50.90
49861;DHT22;35761;48.826;9.238;2023-05-01T07:20:02;10.80;50.40
49861;DHT22;35761;48.826;9.238;2023-05-01T07:22:33;10.80;50.20
49861;DHT22;35761;48.826;9.238;2023-05-01T07:25:07;10.90;50.30
49861;DHT22;35761;48.826;9.238;2023-05-01T07:27:38;10.90;50.30
49861;DHT22;35761;48.826;9.238;2023-05-01T07:30:09;10.90;50.60
49861;DHT22;35761;48.826;9.238;2023-05-01T07:32:41;11.00;50.80
49861;DHT22;35761;48.826;9.238;2023-05-01T07:35:11;10.90;50.40
49861;DHT22;35761;48.826;9.238;2023-05-01T07:37:42;10.90;48.70
49861;DHT22;35761;48.826;9.238;2023-05-01T07:40:15;10.90;48.70
49861;DHT22;35761;48.826;9.238;2023-05-01T07:42:46;11.00;48.80
49861;DHT22;35761;48.826;9.238;2023-05-01T07:45:20;11.10;50.80
49861;DHT22;35761;48.826;9.238;2023-05-01T07:47:51;11.10;50.60
49861;DHT22;35761;48.826;9.238;2023-05-01T07:50:23;11.20;50.10
49861;DHT22;35761;48.826;9.238;2023-05-01T07:52:54;11.20;49.90
49861;DHT22;35761;48.826;9.238;2023-05-01T07:55:27;11.30;50.10
49861;DHT22;35761;48.826;9.238;2023-05-01T07:57:58;11.30;48.50
49861;DHT22;35761;48.826;9.238;2023-05-01T08:00:29;11.50;49.40
49861;DHT22;35761;48.826;9.238;2023-05-01T08:03:00;11.50;48.40
49861;DHT22;35761;48.826;9.238;2023-05-01T08:05:30;11.60;47.60
49861;DHT22;35761;48.826;9.238;2023-05-01T08:08:01;11.70;46.30
49861;DHT22;35761;48.826;9.238;2023-05-01T08:10:35;11.80;45.10
49861;DHT22;35761;48.826;9.238;2023-05-01T08:13:05;11.80;46.30
49861;DHT22;35761;48.826;9.238;2023-05-01T08:15:36;11.90;45.80
49861;DHT22;35761;48.826;9.238;2023-05-01T08:18:09;11.90;45.60
49861;DHT22;35761;48.826;9.238;2023-05-01T08:20:45;11.90;45.00
49861;DHT22;35761;48.826;9.238;2023-05-01T08:23:17;11.90;45.00
49861;DHT22;35761;48.826;9.238;2023-05-01T08:25:50;12.00;45.30
49861;DHT22;35761;48.826;9.238;2023-05-01T08:28:22;12.00;45.90
49861;DHT22;35761;48.826;9.238;2023-05-01T08:30:52;12.00;44.90
49861;DHT22;35761;48.826;9.238;2023-05-01T08:33:23;12.00;44.40
49861;DHT22;35761;48.826;9.238;2023-05-01T08:35:53;12.10;44.70
49861;DHT22;35761;48.826;9.238;2023-05-01T08:38:24;12.10;44.80
49861;DHT22;35761;48.826;9.238;2023-05-01T08:40:57;12.10;43.40
49861;DHT22;35761;48.826;9.238;2023-05-01T08:43:30;12.10;44.00
49861;DHT22;35761;48.826;9.238;2023-05-01T08:46:01;12.10;42.10
49861;DHT22;35761;48.826;9.238;2023-05-01T08:48:34;12.20;42.40
49861;DHT22;35761;48.826;9.238;2023-05-01T08:51:06;12.30;43.70
49861;DHT22;35761;48.826;9.238;2023-05-01T08:53:40;12.30;42.30
49861;DHT22;35761;48.826;9.238;2023-05-01T08:56:14;12.30;41.50
49861;DHT22;35761;48.826;9.238;2023-05-01T08:58:46;12.50;42.00
49861;DHT22;35761;48.826;9.238;2023-05-01T09:01:19;12.50;42.60
49861;DHT22;35761;48.826;9.238;2023-05-01T09:03:51;12.60;43.20
49861;DHT22;35761;48.826;9.238;2023-05-01T09:06:23;12.70;43.70
49861;DHT22;35761;48.826;9.238;2023-05-01T09:08:54;12.80;42.10
49861;DHT22;35761;48.826;9.238;2023-05-01T09:11:27;12.80;43.20
49861;DHT22;35761;48.826;9.238;2023-05-01T09:13:59;12.90;43.30
49861;DHT22;35761;48.826;9.238;2023-05-01T09:16:31;13.00;45.20
49861;DHT22;35761;48.826;9.238;2023-05-01T09:19:02;13.00;41.60
49861;DHT22;35761;48.826;9.238;2023-05-01T09:21:33;13.10;40.40
49861;DHT22;35761;48.826;9.238;2023-05-01T09:24:04;13.10;39.60
49861;DHT22;35761;48.826;9.238;2023-05-01T09:26:38;13.30;39.00
49861;DHT22;35761;48.826;9.238;2023-05-01T09:29:09;13.40;39.20
49861;DHT22;35761;48.826;9.238;2023-05-01T09:31:41;13.60;37.70
49861;DHT22;35761;48.826;9.238;2023-05-01T09:34:12;13.60;37.70
49861;DHT22;35761;48.826;9.238;2023-05-01T09:36:44;13.60;38.40
49861;DHT22;35761;48.826;9.238;2023-05-01T09:39:22;13.60;37.80
49861;DHT22;35761;48.826;9.238;2023-05-01T09:41:55;13.60;37.60
49861;DHT22;35761;48.826;9.238;2023-05-01T09:44:25;13.70;37.30
49861;DHT22;35761;48.826;9.238;2023-05-01T09:46:56;13.70;37.30
49861;DHT22;35761;48.826;9.238;2023-05-01T09:49:44;13.80;38.30
49861;DHT22;35761;48.826;9.238;2023-05-01T09:52:16;13.80;38.80
49861;DHT22;35761;48.826;9.238;2023-05-01T09:54:46;13.90;38.50
49861;DHT22;35761;48.826;9.238;2023-05-01T09:57:33;14.10;37.80
49861;DHT22;35761;48.826;9.238;2023-05-01T10:00:05;14.40;44.50
49861;DHT22;35761;48.826;9.238;2023-05-01T10:05:09;14.40;43.50
49861;DHT22;35761;48.826;9.238;2023-05-01T10:07:54;14.60;35.50
49861;DHT22;35761;48.826;9.238;2023-05-01T10:10:27;14.70;35.30
49861;DHT22;35761;48.826;9.238;2023-05-01T10:13:12;14.70;36.90
49861;DHT22;35761;48.826;9.238;2023-05-01T10:15:43;14.70;37.20
49861;DHT22;35761;48.826;9.238;2023-05-01T10:18:16;14.80;36.20
49861;DHT22;35761;48.826;9.238;2023-05-01T10:20:48;14.90;35.90
49861;DHT22;35761;48.826;9.238;2023-05-01T10:23:19;14.90;36.50
49861;DHT22;35761;48.826;9.238;2023-05-01T10:25:51;14.90;35.90
49861;DHT22;35761;48.826;9.238;2023-05-01T10:28:25;14.90;36.20
49861;DHT22;35761;48.826;9.238;2023-05-01T10:30:56;15.00;34.90
49861;DHT22;35761;48.826;9.238;2023-05-01T10:33:28;15.00;34.30
49861;DHT22;35761;48.826;9.238;2023-05-01T10:35:59;15.00;33.70
49861;DHT22;35761;48.826;9.238;2023-05-01T10:38:32;15.00;34.10
49861;DHT22;35761;48.826;9.238;2023-05-01T10:41:04;15.00;33.70
49861;DHT22;35761;48.826;9.238;2023-05-01T10:43:38;15.10;33.80
49861;DHT22;35761;48.826;9.238;2023-05-01T10:46:30;15.10;34.60
49861;DHT22;35761;48.826;9.238;2023-05-01T10:49:01;15.20;33.90
49861;DHT22;35761;48.826;9.238;2023-05-01T10:51:31;15.30;33.90
49861;DHT22;35761;48.826;9.238;2023-05-01T10:54:20;15.30;33.70
49861;DHT22;35761;48.826;9.238;2023-05-01T10:56:54;15.50;33.80
49861;DHT22;35761;48.826;9.238;2023-05-01T11:02:44;15.70;31.10
49861;DHT22;35761;48.826;9.238;2023-05-01T11:05:15;15.70;30.40
49861;DHT22;35761;48.826;9.238;2023-05-01T11:08:28;15.80;29.00
49861;DHT22;35761;48.826;9.238;2023-05-01T11:14:17;15.90;26.60
49861;DHT22;35761;48.826;9.238;2023-05-01T11:16:50;15.90;27.90
49861;DHT22;35761;48.826;9.238;2023-05-01T11:19:45;15.90;30.30
49861;DHT22;35761;48.826;9.238;2023-05-01T11:22:19;16.00;30.20
49861;DHT22;35761;48.826;9.238;2023-05-01T11:24:49;16.10;31.00
49861;DHT22;35761;48.826;9.238;2023-05-01T11:27:21;16.10;33.50
49861;DHT22;35761;48.826;9.238;2023-05-01T11:29:52;16.20;29.30
49861;DHT22;35761;48.826;9.238;2023-05-01T11:32:27;16.20;29.80
49861;DHT22;35761;48.826;9.238;2023-05-01T11:34:58;16.20;29.80
49861;DHT22;35761;48.826;9.238;2023-05-01T11:37:39;16.30;35.00
49861;DHT22;35761;48.826;9.238;2023-05-01T11:40:20;16.30;30.60
49861;DHT22;35761;48.826;9.238;2023-05-01T11:42:59;16.30;29.90
49861;DHT22;35761;48.826;9.238;2023-05-01T11:45:32;16.30;29.50
49861;DHT22;35761;48.826;9.238;2023-05-01T11:48:13;16.40;29.40
49861;DHT22;35761;48.826;9.238;2023-05-01T11:50:45;16.50;29.00
49861;DHT22;35761;48.826;9.238;2023-05-01T11:53:16;16.50;28.00
49861;DHT22;35761;48.826;9.238;2023-05-01T11:55:47;16.50;28.60
49861;DHT22;35761;48.826;9.238;2023-05-01T11:58:28;16.50;29.80
49861;DHT22;35761;48.826;9.238;2023-05-01T12:01:00;16.70;28.20
49861;DHT22;35761;48.826;9.238;2023-05-01T12:03:45;16.70;26.60
49861;DHT22;35761;48.826;9.238;2023-05-01T12:06:15;16.80;26.30
49861;DHT22;35761;48.826;9.238;2023-05-01T12:08:47;16.70;26.80
49861;DHT22;35761;48.826;9.238;2023-05-01T12:11:19;16.70;26.50
49861;DHT22;35761;48.826;9.238;2023-05-01T12:13:50;16.90;25.70
49861;DHT22;35761;48.826;9.238;2023-05-01T12:16:21;17.00;24.70
49861;DHT22;35761;48.826;9.238;2023-05-01T12:18:54;17.00;24.80
49861;DHT22;35761;48.826;9.238;2023-05-01T12:21:25;17.10;24.60
49861;DHT22;35761;48.826;9.238;2023-05-01T12:23:56;17.00;25.70
49861;DHT22;35761;48.826;9.238;2023-05-01T12:26:27;17.10;25.50
49861;DHT22;35761;48.826;9.238;2023-05-01T12:29:00;17.20;25.20
49861;DHT22;35761;48.826;9.238;2023-05-01T12:31:32;17.50;27.60
49861;DHT22;35761;48.826;9.238;2023-05-01T12:34:06;17.60;23.30
49861;DHT22;35761;48.826;9.238;2023-05-01T12:36:36;17.60;23.90
49861;DHT22;35761;48.826;9.238;2023-05-01T12:39:08;17.70;36.00
49861;DHT22;35761;48.826;9.238;2023-05-01T12:44:19;17.70;25.80
49861;DHT22;35761;48.826;9.238;2023-05-01T12:46:54;17.90;30.00
49861;DHT22;35761;48.826;9.238;2023-05-01T12:49:32;17.90;24.80
49861;DHT22;35761;48.826;9.238;2023-05-01T12:52:08;18.00;25.70
49861;DHT22;35761;48.826;9.238;2023-05-01T12:54:41;17.90;25.90
49861;DHT22;35761;48.826;9.238;2023-05-01T12:57:14;18.20;24.00
49861;DHT22;35761;48.826;9.238;2023-05-01T12:59:45;18.30;25.10
49861;DHT22;35761;48.826;9.238;2023-05-01T13:02:18;18.30;23.60
49861;DHT22;35761;48.826;9.238;2023-05-01T13:04:51;18.20;23.90
49861;DHT22;35761;48.826;9.238;2023-05-01T13:07:22;18.30;24.60
49861;DHT22;35761;48.826;9.238;2023-05-01T13:09:58;18.40;23.70
49861;DHT22;35761;48.826;9.238;2023-05-01T13:12:30;18.50;24.10
49861;DHT22;35761;48.826;9.238;2023-05-01T13:15:05;18.70;22.90
49861;DHT22;35761;48.826;9.238;2023-05-01T13:17:38;18.80;23.40
49861;DHT22;35761;48.826;9.238;2023-05-01T13:20:11;19.00;24.60
49861;DHT22;35761;48.826;9.238;2023-05-01T13:22:42;19.10;23.40
49861;DHT22;35761;48.826;9.238;2023-05-01T13:25:17;19.30;22.10
49861;DHT22;35761;48.826;9.238;2023-05-01T13:27:52;19.00;21.80
49861;DHT22;35761;48.826;9.238;2023-05-01T13:30:30;18.90;22.80
49861;DHT22;35761;48.826;9.238;2023-05-01T13:33:03;18.90;23.10
49861;DHT22;35761;48.826;9.238;2023-05-01T13:35:40;18.70;23.60
49861;DHT22;35761;48.826;9.238;2023-05-01T13:38:10;18.60;23.40
49861;DHT22;35761;48.826;9.238;2023-05-01T13:40:41;18.60;23.20
49861;DHT22;35761;48.826;9.238;2023-05-01T13:43:13;18.50;23.20
49861;DHT22;35761;48.826;9.238;2023-05-01T13:45:44;18.40;23.60
49861;DHT22;35761;48.826;9.238;2023-05-01T13:48:16;18.30;23.90
49861;DHT22;35761;48.826;9.238;2023-05-01T13:50:50;18.20;24.10
49861;DHT22;35761;48.826;9.238;2023-05-01T13:53:23;18.30;23.50
49861;DHT22;35761;48.826;9.238;2023-05-01T13:55:54;18.20;23.30
49861;DHT22;35761;48.826;9.238;2023-05-01T13:58:24;18.30;23.10
49861;DHT22;35761;48.826;9.238;2023-05-01T14:00:57;18.30;23.50
49861;DHT22;35761;48.826;9.238;2023-05-01T14:03:30;18.20;24.30
49861;DHT22;35761;48.826;9.238;2023-05-01T14:06:15;18.00;25.40
49861;DHT22;35761;48.826;9.238;2023-05-01T14:08:47;17.70;26.80
49861;DHT22;35761;48.826;9.238;2023-05-01T14:11:19;17.70;27.90
49861;DHT22;35761;48.826;9.238;2023-05-01T14:13:49;17.70;29.10
49861;DHT22;35761;48.826;9.238;2023-05-01T14:16:23;17.50;28.40
49861;DHT22;35761;48.826;9.238;2023-05-01T14:18:57;17.60;27.30
49861;DHT22;35761;48.826;9.238;2023-05-01T14:21:37;17.60;26.60
49861;DHT22;35761;48.826;9.238;2023-05-01T14:24:10;17.60;26.30
49861;DHT22;35761;48.826;9.238;2023-05-01T14:26:42;17.60;25.90
49861;DHT22;35761;48.826;9.238;2023-05-01T14:29:20;17.50;26.70
49861;DHT22;35761;48.826;9.238;2023-05-01T14:31:53;17.70;26.90
49861;DHT22;35761;48.826;9.238;2023-05-01T14:34:24;17.70;27.50
49861;DHT22;35761;48.826;9.238;2023-05-01T14:36:58;17.70;27.20
49861;DHT22;35761;48.826;9.238;2023-05-01T14:39:31;17.70;27.40
49861;DHT22;35761;48.826;9.238;2023-05-01T14:42:08;17.80;27.20
49861;DHT22;35761;48.826;9.238;2023-05-01T14:44:39;17.90;27.00
49861;DHT22;35761;48.826;9.238;2023-05-01T14:47:13;18.40;27.40
49861;DHT22;35761;48.826;9.238;2023-05-01T14:49:50;18.70;25.50
49861;DHT22;35761;48.826;9.238;2023-05-01T14:52:24;19.10;26.40
49861;DHT22;35761;48.826;9.238;2023-05-01T14:54:55;19.40;24.60
49861;DHT22;35761;48.826;9.238;2023-05-01T14:57:26;19.40;24.10
49861;DHT22;35761;48.826;9.238;2023-05-01T14:59:57;19.40;24.40
49861;DHT22;35761;48.826;9.238;2023-05-01T15:02:27;19.40;23.00
49861;DHT22;35761;48.826;9.238;2023-05-01T15:04:59;19.30;21.70
49861;DHT22;35761;48.826;9.238;2023-05-01T15:07:32;19.00;22.70
49861;DHT22;35761;48.826;9.238;2023-05-01T15:10:03;18.80;23.40
49861;DHT22;35761;48.826;9.238;2023-05-01T15:12:34;18.70;23.80
49861;DHT22;35761;48.826;9.238;2023-05-01T15:15:06;18.70;24.20
49861;DHT22;35761;48.826;9.238;2023-05-01T15:17:38;18.60;23.90
49861;DHT22;35761;48.826;9.238;2023-05-01T15:20:09;18.60;23.80
49861;DHT22;35761;48.826;9.238;2023-05-01T15:22:43;18.60;24.30
49861;DHT22;35761;48.826;9.238;2023-05-01T15:25:13;18.50;24.80
49861;DHT22;35761;48.826;9.238;2023-05-01T15:27:44;18.40;24.30
49861;DHT22;35761;48.826;9.238;2023-05-01T15:30:16;18.40;24.30
49861;DHT22;35761;48.826;9.238;2023-05-01T15:32:49;18.30;23.70
49861;DHT22;35761;48.826;9.238;2023-05-01T15:35:21;18.30;24.20
49861;DHT22;35761;48.826;9.238;2023-05-01T15:37:55;18.30;24.10
49861;DHT22;35761;48.826;9.238;2023-05-01T15:40:25;18.30;23.80
49861;DHT22;35761;48.826;9.238;2023-05-01T15:42:56;18.30;24.00
49861;DHT22;35761;48.826;9.238;2023-05-01T15:45:27;18.30;23.90
49861;DHT22;35761;48.826;9.238;2023-05-01T15:47:58;18.30;24.70
49861;DHT22;35761;48.826;9.238;2023-05-01T15:50:29;18.30;24.90
49861;DHT22;35761;48.826;9.238;2023-05-01T15:53:02;18.40;24.00
49861;DHT22;35761;48.826;9.238;2023-05-01T15:55:33;18.50;26.10
49861;DHT22;35761;48.826;9.238;2023-05-01T15:58:03;18.40;28.50
49861;DHT22;35761;48.826;9.238;2023-05-01T16:00:34;18.10;29.80
49861;DHT22;35761;48.826;9.238;2023-05-01T16:03:06;18.00;30.60
49861;DHT22;35761;48.826;9.238;2023-05-01T16:05:37;17.80;31.10
49861;DHT22;35761;48.826;9.238;2023-05-01T16:08:11;17.80;31.30
49861;DHT22;35761;48.826;9.238;2023-05-01T16:10:41;17.70;31.60
49861;DHT22;35761;48.826;9.238;2023-05-01T16:13:12;17.50;31.20
49861;DHT22;35761;48.826;9.238;2023-05-01T16:15:43;17.50;32.00
49861;DHT22;35761;48.826;9.238;2023-05-01T16:18:18;17.40;32.70
49861;DHT22;35761;48.826;9.238;2023-05-01T16:20:49;17.30;33.00
49861;DHT22;35761;48.826;9.238;2023-05-01T16:23:24;17.20;32.80